sensor_id;sensor_type;location;lat;lon;timestamp;P1;durP1;ratioP1;P2;durP2;ratioP2
69542;SDS011;56762;49.494;11.768;2023-05-10T00:01:32;4.93;;;2.78;;
69542;SDS011;56762;49.494;11.768;2023-05-10T00:04:00;5.87;;;3.20;;
69542;SDS011;56762;49.494;11.768;2023-05-10T00:06:29;6.88;;;3.13;;
69542;SDS011;56762;49.494;11.768;2023-05-10T00:08:57;8.57;;;2.97;;
69542;SDS011;56762;49.494;11.768;2023-05-10T00:11:26;5.93;;;3.20;;
69542;SDS011;56762;49.494;11.768;2023-05-10T00:13:54;5.35;;;2.83;;
69542;SDS011;56762;49.494;11.768;2023-05-10T00:16:22;7.07;;;3.20;;
69542;SDS011;56762;49.494;11.768;2023-05-10T00:18:51;5.93;;;3.30;;
69542;SDS011;56762;49.494;11.768;2023-05-10T00:21:19;5.70;;;3.50;;
69542;SDS011;56762;49.494;11.768;2023-05-10T00:23:47;8.02;;;3.60;;
69542;SDS011;56762;49.494;11.768;2023-05-10T00:26:15;7.38;;;4.13;;
69542;SDS011;56762;49.494;11.768;2023-05-10T00:28:44;8.50;;;3.60;;
69542;SDS011;56762;49.494;11.768;2023-05-10T00:31:12;8.40;;;4.13;;
69542;SDS011;56762;49.494;11.768;2023-05-10T00:33:40;8.15;;;3.88;;
69542;SDS011;56762;49.494;11.768;2023-05-10T00:36:10;8.70;;;4.22;;
69542;SDS011;56762;49.494;11.768;2023-05-10T00:38:38;10.25;;;4.28;;
69542;SDS011;56762;49.494;11.768;2023-05-10T00:41:07;7.93;;;3.83;;
69542;SDS011;56762;49.494;11.768;2023-05-10T00:43:35;7.00;;;3.90;;
69542;SDS011;56762;49.494;11.768;2023-05-10T00:46:03;7.00;;;3.50;;
69542;SDS011;56762;49.494;11.768;2023-05-10T00:48:32;4.18;;;2.67;;
69542;SDS011;56762;49.494;11.768;2023-05-10T00:51:01;4.97;;;3.30;;
69542;SDS011;56762;49.494;11.768;2023-05-10T00:53:31;5.27;;;2.70;;
69542;SDS011;56762;49.494;11.768;2023-05-10T00:55:59;5.63;;;2.90;;
69542;SDS011;56762;49.494;11.768;2023-05-10T00:58:29;4.63;;;2.75;;
69542;SDS011;56762;49.494;11.768;2023-05-10T01:00:57;6.10;;;3.20;;
69542;SDS011;56762;49.494;11.768;2023-05-10T01:03:26;6.05;;;3.10;;
69542;SDS011;56762;49.494;11.768;2023-05-10T01:05:53;5.93;;;2.77;;
69542;SDS011;56762;49.494;11.768;2023-05-10T01:08:21;5.65;;;3.00;;
69542;SDS011;56762;49.494;11.768;2023-05-10T01:10:51;6.45;;;2.80;;
69542;SDS011;56762;49.494;11.768;2023-05-10T01:13:23;5.45;;;3.05;;
69542;SDS011;56762;49.494;11.768;2023-05-10T01:15:59;5.05;;;2.85;;
69542;SDS011;56762;49.494;11.768;2023-05-10T01:18:29;5.73;;;2.80;;
69542;SDS011;56762;49.494;11.768;2023-05-10T01:21:04;7.35;;;3.30;;
69542;SDS011;56762;49.494;11.768;2023-05-10T01:23:47;7.68;;;3.80;;
69542;SDS011;56762;49.494;11.768;2023-05-10T01:27:03;9.13;;;3.95;;
69542;SDS011;56762;49.494;11.768;2023-05-10T01:30:01;6.47;;;3.53;;
69542;SDS011;56762;49.494;11.768;2023-05-10T01:32:49;7.03;;;3.87;;
69542;SDS011;56762;49.494;11.768;2023-05-10T01:35:26;6.95;;;4.05;;
69542;SDS011;56762;49.494;11.768;2023-05-10T01:38:07;9.52;;;4.65;;
69542;SDS011;56762;49.494;11.768;2023-05-10T01:40:42;7.75;;;4.38;;
69542;SDS011;56762;49.494;11.768;2023-05-10T01:43:22;6.60;;;3.60;;
69542;SDS011;56762;49.494;11.768;2023-05-10T01:45:57;6.87;;;3.90;;
69542;SDS011;56762;49.494;11.768;2023-05-10T01:48:32;6.95;;;3.65;;
69542;SDS011;56762;49.494;11.768;2023-05-10T01:51:00;8.23;;;3.92;;
69542;SDS011;56762;49.494;11.768;2023-05-10T01:53:29;7.85;;;3.83;;
69542;SDS011;56762;49.494;11.768;2023-05-10T01:56:00;6.05;;;3.47;;
69542;SDS011;56762;49.494;11.768;2023-05-10T01:58:31;4.90;;;3.00;;
69542;SDS011;56762;49.494;11.768;2023-05-10T02:01:02;4.82;;;2.72;;
69542;SDS011;56762;49.494;11.768;2023-05-10T02:03:33;4.95;;;3.03;;
69542;SDS011;56762;49.494;11.768;2023-05-10T02:06:03;5.30;;;2.90;;
69542;SDS011;56762;49.494;11.768;2023-05-10T02:08:33;5.10;;;3.10;;
69542;SDS011;56762;49.494;11.768;2023-05-10T02:11:03;5.10;;;2.80;;
69542;SDS011;56762;49.494;11.768;2023-05-10T02:13:32;5.57;;;3.05;;
69542;SDS011;56762;49.494;11.768;2023-05-10T02:16:03;5.75;;;3.38;;
69542;SDS011;56762;49.494;11.768;2023-05-10T02:18:34;6.35;;;3.50;;
69542;SDS011;56762;49.494;11.768;2023-05-10T02:21:03;9.10;;;4.60;;
69542;SDS011;56762;49.494;11.768;2023-05-10T02:23:32;10.33;;;5.67;;
69542;SDS011;56762;49.494;11.768;2023-05-10T02:26:01;9.30;;;5.22;;
69542;SDS011;56762;49.494;11.768;2023-05-10T02:28:32;9.25;;;4.88;;
69542;SDS011;56762;49.494;11.768;2023-05-10T02:31:01;6.07;;;3.70;;
69542;SDS011;56762;49.494;11.768;2023-05-10T02:33:29;6.72;;;3.92;;
69542;SDS011;56762;49.494;11.768;2023-05-10T02:36:01;6.23;;;3.80;;
69542;SDS011;56762;49.494;11.768;2023-05-10T02:38:30;6.70;;;3.88;;
69542;SDS011;56762;49.494;11.768;2023-05-10T02:41:00;5.32;;;3.72;;
69542;SDS011;56762;49.494;11.768;2023-05-10T02:43:29;7.70;;;4.20;;
69542;SDS011;56762;49.494;11.768;2023-05-10T02:46:00;6.82;;;4.10;;
69542;SDS011;56762;49.494;11.768;2023-05-10T02:48:28;5.73;;;3.80;;
69542;SDS011;56762;49.494;11.768;2023-05-10T02:50:57;8.10;;;4.15;;
69542;SDS011;56762;49.494;11.768;2023-05-10T02:53:31;9.60;;;5.30;;
69542;SDS011;56762;49.494;11.768;2023-05-10T02:56:01;9.13;;;5.93;;
69542;SDS011;56762;49.494;11.768;2023-05-10T02:58:33;7.75;;;5.40;;
69542;SDS011;56762;49.494;11.768;2023-05-10T03:01:02;7.40;;;4.53;;
69542;SDS011;56762;49.494;11.768;2023-05-10T03:03:30;6.97;;;4.10;;
69542;SDS011;56762;49.494;11.768;2023-05-10T03:05:58;6.78;;;4.03;;
69542;SDS011;56762;49.494;11.768;2023-05-10T03:08:26;5.32;;;3.63;;
69542;SDS011;56762;49.494;11.768;2023-05-10T03:10:59;5.57;;;3.30;;
69542;SDS011;56762;49.494;11.768;2023-05-10T03:13:39;5.37;;;2.80;;
69542;SDS011;56762;49.494;11.768;2023-05-10T03:16:16;4.68;;;2.88;;
69542;SDS011;56762;49.494;11.768;2023-05-10T03:18:56;5.68;;;3.17;;
69542;SDS011;56762;49.494;11.768;2023-05-10T03:21:33;5.45;;;3.50;;
69542;SDS011;56762;49.494;11.768;2023-05-10T03:24:06;7.00;;;2.97;;
69542;SDS011;56762;49.494;11.768;2023-05-10T03:26:39;6.27;;;3.60;;
69542;SDS011;56762;49.494;11.768;2023-05-10T03:29:07;6.45;;;3.28;;
69542;SDS011;56762;49.494;11.768;2023-05-10T03:31:38;5.75;;;3.25;;
69542;SDS011;56762;49.494;11.768;2023-05-10T03:34:06;5.15;;;2.63;;
69542;SDS011;56762;49.494;11.768;2023-05-10T03:36:35;5.75;;;3.55;;
69542;SDS011;56762;49.494;11.768;2023-05-10T03:39:05;5.47;;;2.93;;
69542;SDS011;56762;49.494;11.768;2023-05-10T03:41:33;6.63;;;3.00;;
69542;SDS011;56762;49.494;11.768;2023-05-10T03:44:02;6.28;;;3.35;;
69542;SDS011;56762;49.494;11.768;2023-05-10T03:46:30;4.75;;;2.83;;
69542;SDS011;56762;49.494;11.768;2023-05-10T03:48:58;6.70;;;2.80;;
69542;SDS011;56762;49.494;11.768;2023-05-10T03:51:27;6.80;;;3.00;;
69542;SDS011;56762;49.494;11.768;2023-05-10T03:53:55;6.43;;;3.45;;
69542;SDS011;56762;49.494;11.768;2023-05-10T03:56:23;5.85;;;3.65;;
69542;SDS011;56762;49.494;11.768;2023-05-10T03:58:51;5.70;;;3.45;;
69542;SDS011;56762;49.494;11.768;2023-05-10T04:01:21;5.32;;;3.13;;
69542;SDS011;56762;49.494;11.768;2023-05-10T04:03:48;5.17;;;3.33;;
69542;SDS011;56762;49.494;11.768;2023-05-10T04:06:16;5.25;;;3.40;;
69542;SDS011;56762;49.494;11.768;2023-05-10T04:08:45;5.78;;;3.22;;
69542;SDS011;56762;49.494;11.768;2023-05-10T04:11:12;8.90;;;3.83;;
69542;SDS011;56762;49.494;11.768;2023-05-10T04:13:40;6.13;;;3.60;;
69542;SDS011;56762;49.494;11.768;2023-05-10T04:16:09;7.23;;;3.30;;
69542;SDS011;56762;49.494;11.768;2023-05-10T04:18:38;6.95;;;3.47;;
69542;SDS011;56762;49.494;11.768;2023-05-10T04:21:10;5.57;;;3.35;;
69542;SDS011;56762;49.494;11.768;2023-05-10T04:23:38;6.57;;;3.60;;
69542;SDS011;56762;49.494;11.768;2023-05-10T04:26:07;6.28;;;3.75;;
69542;SDS011;56762;49.494;11.768;2023-05-10T04:28:34;7.37;;;4.40;;
69542;SDS011;56762;49.494;11.768;2023-05-10T04:31:02;7.60;;;3.90;;
69542;SDS011;56762;49.494;11.768;2023-05-10T04:33:31;7.13;;;4.80;;
69542;SDS011;56762;49.494;11.768;2023-05-10T04:36:00;6.45;;;3.90;;
69542;SDS011;56762;49.494;11.768;2023-05-10T04:38:29;6.35;;;4.00;;
69542;SDS011;56762;49.494;11.768;2023-05-10T04:41:03;7.83;;;3.73;;
69542;SDS011;56762;49.494;11.768;2023-05-10T04:43:31;7.28;;;3.92;;
69542;SDS011;56762;49.494;11.768;2023-05-10T04:45:59;6.47;;;4.35;;
69542;SDS011;56762;49.494;11.768;2023-05-10T04:48:27;8.48;;;4.47;;
69542;SDS011;56762;49.494;11.768;2023-05-10T04:50:55;7.18;;;4.00;;
69542;SDS011;56762;49.494;11.768;2023-05-10T04:53:24;6.63;;;4.23;;
69542;SDS011;56762;49.494;11.768;2023-05-10T04:55:52;8.32;;;4.45;;
69542;SDS011;56762;49.494;11.768;2023-05-10T04:58:20;7.03;;;4.50;;
69542;SDS011;56762;49.494;11.768;2023-05-10T05:00:48;8.40;;;4.70;;
69542;SDS011;56762;49.494;11.768;2023-05-10T05:03:15;7.20;;;4.43;;
69542;SDS011;56762;49.494;11.768;2023-05-10T05:05:44;6.80;;;4.60;;
69542;SDS011;56762;49.494;11.768;2023-05-10T05:08:12;7.32;;;4.15;;
69542;SDS011;56762;49.494;11.768;2023-05-10T05:10:41;7.28;;;4.68;;
69542;SDS011;56762;49.494;11.768;2023-05-10T05:13:09;7.88;;;4.95;;
69542;SDS011;56762;49.494;11.768;2023-05-10T05:15:37;10.13;;;5.72;;
69542;SDS011;56762;49.494;11.768;2023-05-10T05:18:05;10.37;;;6.97;;
69542;SDS011;56762;49.494;11.768;2023-05-10T05:20:33;9.55;;;6.00;;
69542;SDS011;56762;49.494;11.768;2023-05-10T05:23:01;9.20;;;4.80;;
69542;SDS011;56762;49.494;11.768;2023-05-10T05:25:29;8.15;;;4.60;;
69542;SDS011;56762;49.494;11.768;2023-05-10T05:27:58;8.18;;;5.20;;
69542;SDS011;56762;49.494;11.768;2023-05-10T05:30:26;9.23;;;4.40;;
69542;SDS011;56762;49.494;11.768;2023-05-10T05:32:54;7.55;;;4.72;;
69542;SDS011;56762;49.494;11.768;2023-05-10T05:35:22;7.78;;;5.28;;
69542;SDS011;56762;49.494;11.768;2023-05-10T05:37:50;9.88;;;5.35;;
69542;SDS011;56762;49.494;11.768;2023-05-10T05:40:18;12.15;;;6.78;;
69542;SDS011;56762;49.494;11.768;2023-05-10T05:42:46;9.77;;;6.10;;
69542;SDS011;56762;49.494;11.768;2023-05-10T05:45:16;10.88;;;6.80;;
69542;SDS011;56762;49.494;11.768;2023-05-10T05:47:44;10.68;;;5.80;;
69542;SDS011;56762;49.494;11.768;2023-05-10T05:50:12;8.63;;;5.25;;
69542;SDS011;56762;49.494;11.768;2023-05-10T05:52:39;8.63;;;5.22;;
69542;SDS011;56762;49.494;11.768;2023-05-10T05:55:08;8.93;;;4.87;;
69542;SDS011;56762;49.494;11.768;2023-05-10T05:57:35;7.47;;;4.80;;
69542;SDS011;56762;49.494;11.768;2023-05-10T06:00:04;6.60;;;4.50;;
69542;SDS011;56762;49.494;11.768;2023-05-10T06:02:34;8.80;;;5.38;;
69542;SDS011;56762;49.494;11.768;2023-05-10T06:05:03;8.68;;;5.18;;
69542;SDS011;56762;49.494;11.768;2023-05-10T06:07:31;8.17;;;5.17;;
69542;SDS011;56762;49.494;11.768;2023-05-10T06:09:59;8.65;;;5.20;;
69542;SDS011;56762;49.494;11.768;2023-05-10T06:12:27;10.00;;;6.35;;
69542;SDS011;56762;49.494;11.768;2023-05-10T06:14:56;9.32;;;5.82;;
69542;SDS011;56762;49.494;11.768;2023-05-10T06:17:23;10.35;;;5.70;;
69542;SDS011;56762;49.494;11.768;2023-05-10T06:19:53;11.40;;;7.07;;
69542;SDS011;56762;49.494;11.768;2023-05-10T06:22:20;9.80;;;5.90;;
69542;SDS011;56762;49.494;11.768;2023-05-10T06:24:49;12.63;;;6.63;;
69542;SDS011;56762;49.494;11.768;2023-05-10T06:27:16;10.85;;;6.20;;
69542;SDS011;56762;49.494;11.768;2023-05-10T06:29:44;14.10;;;6.72;;
69542;SDS011;56762;49.494;11.768;2023-05-10T06:32:14;12.47;;;6.97;;
69542;SDS011;56762;49.494;11.768;2023-05-10T06:34:42;10.93;;;6.30;;
69542;SDS011;56762;49.494;11.768;2023-05-10T06:37:12;13.68;;;7.95;;
69542;SDS011;56762;49.494;11.768;2023-05-10T06:39:40;10.10;;;6.25;;
69542;SDS011;56762;49.494;11.768;2023-05-10T06:42:07;11.25;;;6.28;;
69542;SDS011;56762;49.494;11.768;2023-05-10T06:44:35;10.27;;;6.13;;
69542;SDS011;56762;49.494;11.768;2023-05-10T06:47:03;11.00;;;6.85;;
69542;SDS011;56762;49.494;11.768;2023-05-10T06:49:31;10.25;;;6.55;;
69542;SDS011;56762;49.494;11.768;2023-05-10T06:51:58;9.48;;;5.22;;
69542;SDS011;56762;49.494;11.768;2023-05-10T06:54:27;12.25;;;6.82;;
69542;SDS011;56762;49.494;11.768;2023-05-10T06:56:55;13.50;;;7.10;;
69542;SDS011;56762;49.494;11.768;2023-05-10T06:59:23;10.57;;;5.65;;
69542;SDS011;56762;49.494;11.768;2023-05-10T07:01:51;10.07;;;5.65;;
69542;SDS011;56762;49.494;11.768;2023-05-10T07:04:20;8.05;;;5.45;;
69542;SDS011;56762;49.494;11.768;2023-05-10T07:06:48;8.07;;;5.45;;
69542;SDS011;56762;49.494;11.768;2023-05-10T07:09:17;10.60;;;6.07;;
69542;SDS011;56762;49.494;11.768;2023-05-10T07:11:47;10.63;;;6.00;;
69542;SDS011;56762;49.494;11.768;2023-05-10T07:14:14;10.00;;;5.60;;
69542;SDS011;56762;49.494;11.768;2023-05-10T07:16:42;9.20;;;5.93;;
69542;SDS011;56762;49.494;11.768;2023-05-10T07:19:10;8.20;;;4.95;;
69542;SDS011;56762;49.494;11.768;2023-05-10T07:21:38;7.90;;;5.13;;
69542;SDS011;56762;49.494;11.768;2023-05-10T07:24:08;8.50;;;4.65;;
69542;SDS011;56762;49.494;11.768;2023-05-10T07:26:37;9.18;;;5.05;;
69542;SDS011;56762;49.494;11.768;2023-05-10T07:29:06;10.25;;;6.25;;
69542;SDS011;56762;49.494;11.768;2023-05-10T07:31:33;13.75;;;7.65;;
69542;SDS011;56762;49.494;11.768;2023-05-10T07:34:02;14.43;;;8.57;;
69542;SDS011;56762;49.494;11.768;2023-05-10T07:36:29;15.05;;;9.75;;
69542;SDS011;56762;49.494;11.768;2023-05-10T07:38:58;18.65;;;10.88;;
69542;SDS011;56762;49.494;11.768;2023-05-10T07:41:26;15.98;;;9.93;;
69542;SDS011;56762;49.494;11.768;2023-05-10T07:43:54;12.05;;;8.05;;
69542;SDS011;56762;49.494;11.768;2023-05-10T07:46:24;12.67;;;7.20;;
69542;SDS011;56762;49.494;11.768;2023-05-10T07:48:52;10.57;;;6.32;;
69542;SDS011;56762;49.494;11.768;2023-05-10T07:51:20;10.65;;;6.35;;
69542;SDS011;56762;49.494;11.768;2023-05-10T07:53:48;10.38;;;5.63;;
69542;SDS011;56762;49.494;11.768;2023-05-10T07:56:20;9.70;;;5.72;;
69542;SDS011;56762;49.494;11.768;2023-05-10T07:58:48;8.47;;;5.30;;
69542;SDS011;56762;49.494;11.768;2023-05-10T08:01:16;9.38;;;5.18;;
69542;SDS011;56762;49.494;11.768;2023-05-10T08:03:45;7.53;;;5.03;;
69542;SDS011;56762;49.494;11.768;2023-05-10T08:06:13;9.50;;;4.47;;
69542;SDS011;56762;49.494;11.768;2023-05-10T08:08:41;10.13;;;6.45;;
69542;SDS011;56762;49.494;11.768;2023-05-10T08:11:09;12.80;;;6.47;;
69542;SDS011;56762;49.494;11.768;2023-05-10T08:13:37;11.50;;;5.70;;
69542;SDS011;56762;49.494;11.768;2023-05-10T08:16:05;7.47;;;4.85;;
69542;SDS011;56762;49.494;11.768;2023-05-10T08:18:33;7.35;;;4.10;;
69542;SDS011;56762;49.494;11.768;2023-05-10T08:21:03;8.00;;;4.68;;
69542;SDS011;56762;49.494;11.768;2023-05-10T08:23:31;6.17;;;3.53;;
69542;SDS011;56762;49.494;11.768;2023-05-10T08:25:58;1.90;;;0.98;;
69542;SDS011;56762;49.494;11.768;2023-05-10T08:28:26;1.42;;;0.60;;
69542;SDS011;56762;49.494;11.768;2023-05-10T08:30:54;1.17;;;0.38;;
69542;SDS011;56762;49.494;11.768;2023-05-10T08:33:23;0.90;;;0.30;;
69542;SDS011;56762;49.494;11.768;2023-05-10T08:35:52;0.80;;;0.30;;
69542;SDS011;56762;49.494;11.768;2023-05-10T08:38:21;1.30;;;0.30;;
69542;SDS011;56762;49.494;11.768;2023-05-10T08:40:50;0.93;;;0.30;;
69542;SDS011;56762;49.494;11.768;2023-05-10T08:43:22;1.00;;;0.20;;
69542;SDS011;56762;49.494;11.768;2023-05-10T08:45:54;0.50;;;0.20;;
69542;SDS011;56762;49.494;11.768;2023-05-10T08:48:23;0.70;;;0.30;;
69542;SDS011;56762;49.494;11.768;2023-05-10T08:50:52;0.82;;;0.20;;
69542;SDS011;56762;49.494;11.768;2023-05-10T08:53:23;0.60;;;0.20;;
69542;SDS011;56762;49.494;11.768;2023-05-10T08:55:54;1.30;;;0.43;;
69542;SDS011;56762;49.494;11.768;2023-05-10T08:58:23;0.98;;;0.40;;
69542;SDS011;56762;49.494;11.768;2023-05-10T09:00:51;0.87;;;0.30;;
69542;SDS011;56762;49.494;11.768;2023-05-10T09:03:22;0.93;;;0.30;;
69542;SDS011;56762;49.494;11.768;2023-05-10T09:05:50;1.42;;;0.30;;
69542;SDS011;56762;49.494;11.768;2023-05-10T09:08:18;0.70;;;0.20;;
69542;SDS011;56762;49.494;11.768;2023-05-10T09:10:49;1.63;;;0.50;;
69542;SDS011;56762;49.494;11.768;2023-05-10T09:13:18;0.67;;;0.30;;
69542;SDS011;56762;49.494;11.768;2023-05-10T09:15:47;0.77;;;0.20;;
69542;SDS011;56762;49.494;11.768;2023-05-10T09:18:15;1.25;;;0.30;;
69542;SDS011;56762;49.494;11.768;2023-05-10T09:20:43;2.55;;;1.02;;
69542;SDS011;56762;49.494;11.768;2023-05-10T09:23:11;0.95;;;0.30;;
69542;SDS011;56762;49.494;11.768;2023-05-10T09:25:39;1.03;;;0.40;;
69542;SDS011;56762;49.494;11.768;2023-05-10T09:28:10;0.85;;;0.40;;
69542;SDS011;56762;49.494;11.768;2023-05-10T09:30:39;0.68;;;0.20;;
69542;SDS011;56762;49.494;11.768;2023-05-10T09:33:07;1.30;;;0.10;;
69542;SDS011;56762;49.494;11.768;2023-05-10T09:35:35;0.88;;;0.38;;
69542;SDS011;56762;49.494;11.768;2023-05-10T09:38:04;0.80;;;0.30;;
69542;SDS011;56762;49.494;11.768;2023-05-10T09:40:34;1.48;;;0.22;;
69542;SDS011;56762;49.494;11.768;2023-05-10T09:43:07;0.80;;;0.30;;
69542;SDS011;56762;49.494;11.768;2023-05-10T09:45:40;0.63;;;0.20;;
69542;SDS011;56762;49.494;11.768;2023-05-10T09:48:09;0.73;;;0.30;;
69542;SDS011;56762;49.494;11.768;2023-05-10T09:50:40;0.80;;;0.20;;
69542;SDS011;56762;49.494;11.768;2023-05-10T09:53:14;1.17;;;0.20;;
69542;SDS011;56762;49.494;11.768;2023-05-10T09:55:42;0.77;;;0.30;;
69542;SDS011;56762;49.494;11.768;2023-05-10T09:58:13;0.82;;;0.20;;
69542;SDS011;56762;49.494;11.768;2023-05-10T10:00:43;2.92;;;0.60;;
69542;SDS011;56762;49.494;11.768;2023-05-10T10:03:14;1.00;;;0.30;;
69542;SDS011;56762;49.494;11.768;2023-05-10T10:05:44;1.67;;;0.20;;
69542;SDS011;56762;49.494;11.768;2023-05-10T10:08:15;0.50;;;0.20;;
69542;SDS011;56762;49.494;11.768;2023-05-10T10:10:45;0.82;;;0.32;;
69542;SDS011;56762;49.494;11.768;2023-05-10T10:13:16;0.70;;;0.20;;
69542;SDS011;56762;49.494;11.768;2023-05-10T10:15:46;1.53;;;0.30;;
69542;SDS011;56762;49.494;11.768;2023-05-10T10:18:17;0.50;;;0.20;;
69542;SDS011;56762;49.494;11.768;2023-05-10T10:20:49;1.17;;;0.20;;
69542;SDS011;56762;49.494;11.768;2023-05-10T10:23:17;1.77;;;0.30;;
69542;SDS011;56762;49.494;11.768;2023-05-10T10:25:46;0.70;;;0.20;;
69542;SDS011;56762;49.494;11.768;2023-05-10T10:28:31;0.87;;;0.40;;
69542;SDS011;56762;49.494;11.768;2023-05-10T10:31:13;1.00;;;0.30;;
69542;SDS011;56762;49.494;11.768;2023-05-10T10:33:51;0.80;;;0.40;;
69542;SDS011;56762;49.494;11.768;2023-05-10T10:36:27;1.65;;;0.60;;
69542;SDS011;56762;49.494;11.768;2023-05-10T10:38:55;1.35;;;0.50;;
69542;SDS011;56762;49.494;11.768;2023-05-10T10:41:27;2.63;;;0.30;;
69542;SDS011;56762;49.494;11.768;2023-05-10T10:47:05;1.35;;;0.38;;
69542;SDS011;56762;49.494;11.768;2023-05-10T10:50:02;0.93;;;0.43;;
69542;SDS011;56762;49.494;11.768;2023-05-10T10:52:32;1.27;;;0.40;;
69542;SDS011;56762;49.494;11.768;2023-05-10T10:55:02;1.03;;;0.30;;
69542;SDS011;56762;49.494;11.768;2023-05-10T10:57:33;1.10;;;0.40;;
69542;SDS011;56762;49.494;11.768;2023-05-10T11:00:23;0.90;;;0.30;;
69542;SDS011;56762;49.494;11.768;2023-05-10T11:02:58;1.00;;;0.60;;
69542;SDS011;56762;49.494;11.768;2023-05-10T11:05:33;1.10;;;0.52;;
69542;SDS011;56762;49.494;11.768;2023-05-10T11:08:15;0.70;;;0.20;;
69542;SDS011;56762;49.494;11.768;2023-05-10T11:11:02;1.10;;;0.40;;
69542;SDS011;56762;49.494;11.768;2023-05-10T11:13:39;1.60;;;0.43;;
69542;SDS011;56762;49.494;11.768;2023-05-10T11:16:15;1.35;;;0.75;;
69542;SDS011;56762;49.494;11.768;2023-05-10T11:18:56;2.75;;;1.45;;
69542;SDS011;56762;49.494;11.768;2023-05-10T11:21:26;6.97;;;3.03;;
69542;SDS011;56762;49.494;11.768;2023-05-10T11:23:55;3.70;;;1.60;;
69542;SDS011;56762;49.494;11.768;2023-05-10T11:26:24;1.70;;;0.80;;
69542;SDS011;56762;49.494;11.768;2023-05-10T11:29:00;1.63;;;0.68;;
69542;SDS011;56762;49.494;11.768;2023-05-10T11:31:31;1.63;;;0.50;;
69542;SDS011;56762;49.494;11.768;2023-05-10T11:34:01;1.33;;;0.57;;
69542;SDS011;56762;49.494;11.768;2023-05-10T11:36:32;1.05;;;0.60;;
69542;SDS011;56762;49.494;11.768;2023-05-10T11:39:03;2.80;;;0.63;;
69542;SDS011;56762;49.494;11.768;2023-05-10T11:41:31;0.88;;;0.50;;
69542;SDS011;56762;49.494;11.768;2023-05-10T11:44:06;1.35;;;0.50;;
69542;SDS011;56762;49.494;11.768;2023-05-10T11:46:37;1.20;;;0.30;;
69542;SDS011;56762;49.494;11.768;2023-05-10T11:49:06;1.58;;;0.30;;
69542;SDS011;56762;49.494;11.768;2023-05-10T11:51:35;1.40;;;0.30;;
69542;SDS011;56762;49.494;11.768;2023-05-10T11:54:05;1.50;;;0.38;;
69542;SDS011;56762;49.494;11.768;2023-05-10T11:56:35;1.60;;;0.38;;
69542;SDS011;56762;49.494;11.768;2023-05-10T11:59:09;2.90;;;0.43;;
69542;SDS011;56762;49.494;11.768;2023-05-10T12:01:44;1.52;;;0.50;;
69542;SDS011;56762;49.494;11.768;2023-05-10T12:04:14;1.83;;;0.47;;
69542;SDS011;56762;49.494;11.768;2023-05-10T12:06:43;1.23;;;0.38;;
69542;SDS011;56762;49.494;11.768;2023-05-10T12:09:14;1.50;;;0.50;;
69542;SDS011;56762;49.494;11.768;2023-05-10T12:11:48;1.30;;;0.63;;
69542;SDS011;56762;49.494;11.768;2023-05-10T12:14:17;2.00;;;0.80;;
69542;SDS011;56762;49.494;11.768;2023-05-10T12:16:47;4.00;;;1.55;;
69542;SDS011;56762;49.494;11.768;2023-05-10T12:22:09;2.17;;;1.30;;
69542;SDS011;56762;49.494;11.768;2023-05-10T12:24:45;2.30;;;0.80;;
69542;SDS011;56762;49.494;11.768;2023-05-10T12:27:13;1.83;;;0.50;;
69542;SDS011;56762;49.494;11.768;2023-05-10T12:29:42;2.38;;;1.00;;
69542;SDS011;56762;49.494;11.768;2023-05-10T12:32:16;1.60;;;0.60;;
69542;SDS011;56762;49.494;11.768;2023-05-10T12:34:46;3.63;;;1.17;;
69542;SDS011;56762;49.494;11.768;2023-05-10T12:37:14;4.10;;;1.83;;
69542;SDS011;56762;49.494;11.768;2023-05-10T12:39:43;1.75;;;0.80;;
69542;SDS011;56762;49.494;11.768;2023-05-10T12:42:12;1.50;;;0.50;;
69542;SDS011;56762;49.494;11.768;2023-05-10T12:44:41;2.35;;;0.60;;
69542;SDS011;56762;49.494;11.768;2023-05-10T12:47:09;2.28;;;0.60;;
69542;SDS011;56762;49.494;11.768;2023-05-10T12:49:37;1.20;;;0.60;;
69542;SDS011;56762;49.494;11.768;2023-05-10T12:52:10;1.67;;;0.52;;
69542;SDS011;56762;49.494;11.768;2023-05-10T12:54:42;0.70;;;0.50;;
69542;SDS011;56762;49.494;11.768;2023-05-10T12:57:10;1.35;;;0.40;;
69542;SDS011;56762;49.494;11.768;2023-05-10T12:59:40;1.38;;;0.45;;
69542;SDS011;56762;49.494;11.768;2023-05-10T13:02:07;1.10;;;0.37;;
69542;SDS011;56762;49.494;11.768;2023-05-10T13:04:36;1.58;;;0.40;;
69542;SDS011;56762;49.494;11.768;2023-05-10T13:07:06;2.40;;;0.70;;
69542;SDS011;56762;49.494;11.768;2023-05-10T13:09:35;1.52;;;0.65;;
69542;SDS011;56762;49.494;11.768;2023-05-10T13:12:03;1.65;;;0.52;;
69542;SDS011;56762;49.494;11.768;2023-05-10T13:14:34;2.57;;;0.60;;
69542;SDS011;56762;49.494;11.768;2023-05-10T13:17:02;2.92;;;0.60;;
69542;SDS011;56762;49.494;11.768;2023-05-10T13:19:30;1.92;;;0.60;;
69542;SDS011;56762;49.494;11.768;2023-05-10T13:21:58;1.85;;;0.88;;
69542;SDS011;56762;49.494;11.768;2023-05-10T13:24:26;3.20;;;0.90;;
69542;SDS011;56762;49.494;11.768;2023-05-10T13:26:57;1.77;;;0.60;;
69542;SDS011;56762;49.494;11.768;2023-05-10T13:29:28;2.83;;;1.00;;
69542;SDS011;56762;49.494;11.768;2023-05-10T13:31:57;3.00;;;1.40;;
69542;SDS011;56762;49.494;11.768;2023-05-10T13:34:24;2.22;;;1.05;;
69542;SDS011;56762;49.494;11.768;2023-05-10T13:36:53;3.25;;;0.90;;
69542;SDS011;56762;49.494;11.768;2023-05-10T13:39:22;1.60;;;0.40;;
69542;SDS011;56762;49.494;11.768;2023-05-10T13:41:51;2.50;;;0.73;;
69542;SDS011;56762;49.494;11.768;2023-05-10T13:44:22;1.77;;;0.65;;
69542;SDS011;56762;49.494;11.768;2023-05-10T13:46:50;1.33;;;0.50;;
69542;SDS011;56762;49.494;11.768;2023-05-10T13:49:18;1.15;;;0.50;;
69542;SDS011;56762;49.494;11.768;2023-05-10T13:51:47;2.60;;;0.50;;
69542;SDS011;56762;49.494;11.768;2023-05-10T13:54:15;2.15;;;0.80;;
69542;SDS011;56762;49.494;11.768;2023-05-10T13:56:45;9.80;;;6.35;;
69542;SDS011;56762;49.494;11.768;2023-05-10T13:59:15;12.85;;;8.00;;
69542;SDS011;56762;49.494;11.768;2023-05-10T14:01:44;12.48;;;6.82;;
69542;SDS011;56762;49.494;11.768;2023-05-10T14:04:12;8.30;;;4.13;;
69542;SDS011;56762;49.494;11.768;2023-05-10T14:06:40;5.65;;;2.50;;
69542;SDS011;56762;49.494;11.768;2023-05-10T14:09:08;8.77;;;4.03;;
69542;SDS011;56762;49.494;11.768;2023-05-10T14:11:36;8.65;;;4.45;;
69542;SDS011;56762;49.494;11.768;2023-05-10T14:14:08;7.82;;;4.20;;
69542;SDS011;56762;49.494;11.768;2023-05-10T14:16:36;6.17;;;4.00;;
69542;SDS011;56762;49.494;11.768;2023-05-10T14:19:06;5.63;;;2.42;;
69542;SDS011;56762;49.494;11.768;2023-05-10T14:21:34;3.45;;;1.80;;
69542;SDS011;56762;49.494;11.768;2023-05-10T14:24:02;1.10;;;0.52;;
69542;SDS011;56762;49.494;11.768;2023-05-10T14:26:32;1.65;;;0.40;;
69542;SDS011;56762;49.494;11.768;2023-05-10T14:29:00;1.40;;;0.40;;
69542;SDS011;56762;49.494;11.768;2023-05-10T14:31:28;0.75;;;0.30;;
69542;SDS011;56762;49.494;11.768;2023-05-10T14:33:57;2.78;;;1.08;;
69542;SDS011;56762;49.494;11.768;2023-05-10T14:36:26;4.07;;;2.10;;
69542;SDS011;56762;49.494;11.768;2023-05-10T14:38:55;2.75;;;1.20;;
69542;SDS011;56762;49.494;11.768;2023-05-10T14:41:24;1.37;;;0.67;;
69542;SDS011;56762;49.494;11.768;2023-05-10T14:43:53;1.25;;;0.70;;
69542;SDS011;56762;49.494;11.768;2023-05-10T14:46:21;2.80;;;1.15;;
69542;SDS011;56762;49.494;11.768;2023-05-10T14:48:48;1.50;;;0.35;;
69542;SDS011;56762;49.494;11.768;2023-05-10T14:51:16;1.95;;;0.65;;
69542;SDS011;56762;49.494;11.768;2023-05-10T14:53:49;1.77;;;0.40;;
69542;SDS011;56762;49.494;11.768;2023-05-10T14:56:18;2.25;;;0.38;;